Maplewood, Maine
Current Conditions -  °F | °C
As of 8:54 PM on Thursday 18 Dec 2014 (Local Time) from KIZG Reporting Station
Overcast Overcast  
Wind Chill: 33°   Ceiling: 3700
Heat Index: 33°   Visibility: 10mi
Dew Point: 23°   Wind: 0mph
Humidity: 66%   Direction: NA
Pressure: 29.79"   Gusts: NA
Location:  43.7658°N, 70.9172°W
Report Text: KIZG 190154Z AUTO 00000KT 10SM OVC037 01/M05 A2979 RMK AO2 SLP093 T00061050
Loading
Personal Weather Stations






























Interactive Weather Map New forecast layout! Learn more

10-Day Weather Forecast

Advertisements
Track Severe Weather on mobile